Time;durP1;ratioP1;P1;durP2;ratioP2;P2;SDS_P1;SDS_P2;PMS_P1;PMS_P2;Temp;Humidity;BMP_temperature;BMP_pressure;BME280_temperature;BME280_humidity;BME280_pressure;Samples;Min_cycle;Max_cycle;Signal;HPM_P1;HPM_P2
2022/07/25 00:01:11;;;;;;;9.98;6.70;;;;;;;25.73;46.45;93938.06;4992073;28;20538;-80
2022/07/25 00:03:37;;;;;;;9.43;7.28;;;;;;;25.79;46.57;93968.38;4992099;28;20022;-80
2022/07/25 00:06:03;;;;;;;8.45;6.30;;;;;;;25.66;46.48;93954.50;5004152;28;20088;-77
2022/07/25 00:08:28;;;;;;;7.88;7.07;;;;;;;25.52;46.17;93944.50;4992511;28;20059;-79
2022/07/25 00:10:53;;;;;;;8.52;7.10;;;;;;;25.48;45.61;93935.59;4991182;28;20041;-79
2022/07/25 00:13:19;;;;;;;7.53;6.72;;;;;;;25.45;46.94;93928.25;4991003;28;20447;-79
2022/07/25 00:15:44;;;;;;;8.52;7.18;;;;;;;25.51;47.79;93937.53;5005913;28;20029;-79
2022/07/25 00:18:09;;;;;;;10.75;7.40;;;;;;;25.63;47.05;93952.56;4993131;28;20018;-80
2022/07/25 00:20:35;;;;;;;9.00;7.47;;;;;;;25.54;47.16;93933.22;4989158;28;20030;-80
2022/07/25 00:23:00;;;;;;;8.80;6.85;;;;;;;25.54;46.93;93925.81;4993502;28;20441;-80
2022/07/25 00:25:26;;;;;;;9.00;7.25;;;;;;;25.70;46.85;93950.56;4990442;28;20030;-79
2022/07/25 00:27:51;;;;;;;10.07;7.28;;;;;;;25.65;46.93;93939.34;4989575;28;20517;-80
2022/07/25 00:30:16;;;;;;;6.90;6.20;;;;;;;25.51;47.36;93934.81;4993675;28;20025;-79
2022/07/25 00:32:42;;;;;;;8.98;7.60;;;;;;;25.58;47.49;93931.22;4993257;28;20030;-80
2022/07/25 00:35:07;;;;;;;7.75;6.97;;;;;;;25.51;47.66;93914.97;4988495;28;20514;-80
2022/07/25 00:37:33;;;;;;;7.72;6.53;;;;;;;25.51;47.83;93923.94;4990695;28;20010;-80
2022/07/25 00:39:58;;;;;;;13.52;7.60;;;;;;;25.55;47.92;93921.94;5006032;28;20056;-80
2022/07/25 00:42:23;;;;;;;8.82;7.60;;;;;;;25.57;47.62;93927.72;4991119;28;20026;-80
2022/07/25 00:44:50;;;;;;;10.27;7.50;;;;;;;25.54;47.68;93928.56;4991693;28;20100;-80
2022/07/25 00:47:15;;;;;;;9.68;8.02;;;;;;;25.40;48.16;93920.53;4990138;28;20442;-79
2022/07/25 00:49:41;;;;;;;13.02;7.72;;;;;;;25.49;48.12;93937.16;4991945;28;20077;-80
2022/07/25 00:52:06;;;;;;;7.30;6.60;;;;;;;25.42;48.36;93929.06;4991414;28;20565;-79
2022/07/25 00:54:32;;;;;;;9.93;7.47;;;;;;;25.12;47.75;93886.19;4994840;28;20073;-80
2022/07/25 00:56:57;;;;;;;9.10;7.65;;;;;;;25.23;47.80;93905.88;4990527;28;20029;-80
2022/07/25 00:59:23;;;;;;;9.68;8.25;;;;;;;25.33;46.60;93930.72;4991501;28;20032;-80
2022/07/25 01:01:48;;;;;;;8.27;6.78;;;;;;;25.18;46.50;93908.28;4991065;28;20026;-80
2022/07/25 01:04:14;;;;;;;8.63;7.72;;;;;;;25.33;46.40;93917.88;4989334;28;20030;-79
2022/07/25 01:06:40;;;;;;;8.77;6.95;;;;;;;25.29;47.17;93903.50;4990953;28;20025;-80
2022/07/25 01:09:06;;;;;;;11.80;7.22;;;;;;;25.27;47.43;93928.38;4990563;28;20046;-80
2022/07/25 01:11:32;;;;;;;8.35;7.35;;;;;;;25.26;47.98;93920.66;4989450;28;20021;-80
2022/07/25 01:13:57;;;;;;;8.30;7.10;;;;;;;25.18;47.88;93911.00;4990284;28;20052;-79
2022/07/25 01:16:23;;;;;;;8.63;7.70;;;;;;;25.28;47.46;93924.50;4991591;28;20541;-79
2022/07/25 01:18:48;;;;;;;11.90;7.78;;;;;;;25.12;48.68;93899.00;4989412;28;20033;-79
2022/07/25 01:21:13;;;;;;;9.35;7.90;;;;;;;25.28;48.40;93932.66;4990697;28;20115;-79
2022/07/25 01:23:40;;;;;;;9.00;7.30;;;;;;;25.25;48.20;93930.75;4988435;28;20118;-80
2022/07/25 01:26:05;;;;;;;8.77;7.10;;;;;;;25.22;48.28;93931.53;4990268;28;20532;-79
2022/07/25 01:28:31;;;;;;;8.25;7.45;;;;;;;25.20;48.05;93927.69;4991567;28;20493;-80
2022/07/25 01:30:56;;;;;;;11.75;8.30;;;;;;;25.13;48.21;93917.66;4989968;28;20089;-79
2022/07/25 01:33:22;;;;;;;9.60;7.43;;;;;;;25.01;48.07;93882.00;4991367;28;20038;-80
2022/07/25 01:35:48;;;;;;;11.05;7.97;;;;;;;25.08;48.56;93909.13;4991879;28;20517;-79
2022/07/25 01:38:14;;;;;;;12.35;7.65;;;;;;;25.17;48.17;93910.25;4990972;28;20022;-79
2022/07/25 01:40:41;;;;;;;8.93;7.60;;;;;;;25.29;47.63;93919.84;4993613;28;20052;-79
2022/07/25 01:43:07;;;;;;;9.23;7.03;;;;;;;25.16;48.12;93897.03;4989010;28;20382;-79
2022/07/25 01:45:32;;;;;;;8.05;7.18;;;;;;;25.18;48.44;93924.59;4992138;28;20036;-80
2022/07/25 01:47:58;;;;;;;9.13;7.60;;;;;;;25.21;48.56;93926.53;4989848;28;20022;-79
2022/07/25 01:50:24;;;;;;;8.18;7.28;;;;;;;25.24;48.75;93925.72;4991539;28;20026;-79
2022/07/25 01:52:49;;;;;;;8.65;7.15;;;;;;;25.24;48.57;93931.94;4992202;28;20034;-79
2022/07/25 01:55:15;;;;;;;9.10;7.65;;;;;;;25.23;48.71;93929.59;4995365;28;20053;-80
2022/07/25 01:57:41;;;;;;;10.18;7.03;;;;;;;25.23;48.45;93932.31;4988288;28;20034;-80
2022/07/25 02:00:10;;;;;;;9.68;6.68;;;;;;;25.22;48.39;93934.28;4990772;28;20116;-79
2022/07/25 02:02:35;;;;;;;7.63;6.82;;;;;;;25.21;48.78;93945.59;4997950;28;20072;-80
2022/07/25 02:05:01;;;;;;;8.75;6.85;;;;;;;25.17;48.39;93939.41;4993035;28;20359;-80
2022/07/25 02:07:26;;;;;;;8.23;6.60;;;;;;;25.08;48.79;93925.47;4994098;28;20021;-79
2022/07/25 02:09:52;;;;;;;8.75;6.68;;;;;;;25.05;48.50;93927.06;4993996;28;20050;-79
2022/07/25 02:12:17;;;;;;;8.68;6.57;;;;;;;24.96;48.66;93923.25;4994583;28;20022;-80
2022/07/25 02:14:43;;;;;;;8.48;7.40;;;;;;;24.82;48.60;93903.16;4995130;28;20026;-79
2022/07/25 02:17:08;;;;;;;11.10;8.23;;;;;;;24.90;48.07;93930.28;4993738;28;20145;-80
2022/07/25 02:19:35;;;;;;;8.75;7.63;;;;;;;24.82;48.31;93930.38;4994610;28;20445;-80
2022/07/25 02:22:00;;;;;;;7.57;6.65;;;;;;;24.82;48.20;93935.81;4992609;28;20030;-80
2022/07/25 02:24:26;;;;;;;8.73;7.82;;;;;;;23.71;48.25;93770.38;4993124;28;20076;-79
2022/07/25 02:26:51;;;;;;;9.07;6.88;;;;;;;24.75;48.34;93935.84;4993409;28;20045;-79
2022/07/25 02:29:16;;;;;;;8.07;7.28;;;;;;;24.64;48.32;93924.22;5007441;28;20026;-80
2022/07/25 02:31:42;;;;;;;8.95;7.15;;;;;;;24.33;48.61;93909.72;4992620;28;20018;-80
2022/07/25 02:34:07;;;;;;;9.80;7.38;;;;;;;24.54;48.71;93941.41;4993082;28;20026;-79
2022/07/25 02:36:33;;;;;;;8.13;7.20;;;;;;;24.48;48.27;93943.00;4998235;28;20030;-79
2022/07/25 02:38:58;;;;;;;8.88;7.65;;;;;;;24.39;48.17;93929.09;4993853;28;20077;-79
2022/07/25 02:41:23;;;;;;;7.07;6.15;;;;;;;24.39;47.67;93929.84;4995582;28;20586;-78
2022/07/25 02:43:49;;;;;;;8.55;7.13;;;;;;;24.24;47.73;93911.31;4992353;28;20442;-80
2022/07/25 02:46:14;;;;;;;9.45;6.45;;;;;;;24.27;46.86;93932.25;4996857;28;20021;-77
2022/07/25 02:48:40;;;;;;;7.90;6.90;;;;;;;24.19;46.68;93911.75;4990754;28;20022;-79
2022/07/25 02:51:05;;;;;;;6.82;5.95;;;;;;;24.27;47.01;93922.16;4991650;28;20526;-79
2022/07/25 02:53:30;;;;;;;7.00;6.10;;;;;;;24.12;47.46;93930.78;4992773;28;20153;-79
2022/07/25 02:55:56;;;;;;;7.85;7.05;;;;;;;23.88;47.16;93887.03;4993789;28;20098;-79
2022/07/25 02:58:21;;;;;;;9.18;6.90;;;;;;;24.16;46.79;93916.00;4991130;28;20459;-79
2022/07/25 03:00:47;;;;;;;8.75;7.22;;;;;;;24.10;47.44;93935.81;5007676;28;20029;-79
2022/07/25 03:03:12;;;;;;;8.95;6.40;;;;;;;24.14;47.19;93928.47;4993390;28;20521;-79
2022/07/25 03:05:37;;;;;;;7.28;6.05;;;;;;;23.97;47.33;93913.75;4993886;28;20021;-80
2022/07/25 03:08:03;;;;;;;6.07;5.45;;;;;;;24.06;46.80;93926.91;4992540;28;20032;-79
2022/07/25 03:10:29;;;;;;;10.05;6.50;;;;;;;24.09;46.54;93932.34;4993804;28;20169;-79
2022/07/25 03:12:54;;;;;;;7.28;6.22;;;;;;;24.04;46.25;93938.19;4991745;28;20026;-79
2022/07/25 03:15:20;;;;;;;8.23;6.43;;;;;;;23.88;45.80;93938.63;4993713;28;20088;-79
2022/07/25 03:17:45;;;;;;;6.70;5.47;;;;;;;23.88;45.70;93938.63;5007758;28;20026;-80
2022/07/25 03:20:11;;;;;;;7.63;6.10;;;;;;;23.97;46.24;93944.41;4993829;28;20057;-79
2022/07/25 03:22:37;;;;;;;8.27;6.40;;;;;;;23.81;46.24;93903.34;4992225;28;20026;-78
2022/07/25 03:25:03;;;;;;;9.55;6.05;;;;;;;24.01;45.68;93930.78;4992481;28;20032;-76
2022/07/25 03:27:28;;;;;;;7.75;6.47;;;;;;;23.86;45.20;93913.03;4993114;28;20128;-79
2022/07/25 03:29:53;;;;;;;9.18;6.82;;;;;;;23.59;45.80;93915.47;4991904;28;20026;-79
2022/07/25 03:32:19;;;;;;;7.13;6.03;;;;;;;23.88;45.78;93948.72;4991600;28;20156;-80
2022/07/25 03:34:44;;;;;;;10.85;6.75;;;;;;;23.52;45.96;93915.47;4992793;28;20083;-79
2022/07/25 03:37:10;;;;;;;7.10;5.63;;;;;;;23.71;45.84;93944.88;4988726;28;20725;-80
2022/07/25 03:39:35;;;;;;;7.07;5.80;;;;;;;23.75;45.66;93929.38;4992444;28;20045;-79
2022/07/25 03:42:01;;;;;;;8.43;6.28;;;;;;;23.93;45.67;93948.31;4992305;28;20737;-79
2022/07/25 03:44:26;;;;;;;7.15;5.88;;;;;;;23.89;45.59;93934.75;4991993;28;20569;-80
2022/07/25 03:46:51;;;;;;;7.20;6.28;;;;;;;23.64;45.73;93939.50;4992498;28;20633;-79
2022/07/25 03:49:17;;;;;;;8.60;5.93;;;;;;;23.37;46.41;93925.56;4991986;28;20021;-79
2022/07/25 03:51:43;;;;;;;8.80;7.15;;;;;;;23.28;46.15;93944.19;4992633;28;20029;-79
2022/07/25 03:54:12;;;;;;;9.07;6.10;;;;;;;23.04;46.57;93924.06;4993293;28;20026;-80
2022/07/25 03:56:45;;;;;;;10.82;7.72;;;;;;;23.03;46.21;93936.09;4992195;28;20095;-79
2022/07/25 03:59:14;;;;;;;8.98;7.20;;;;;;;23.07;46.50;93934.13;4988623;28;20030;-77
2022/07/25 04:01:40;;;;;;;7.43;6.43;;;;;;;23.08;46.54;93938.41;4992066;28;20371;-79
2022/07/25 04:04:05;;;;;;;7.40;6.30;;;;;;;23.19;46.23;93953.91;4991336;28;20500;-79
2022/07/25 04:06:31;;;;;;;7.88;5.97;;;;;;;23.27;46.43;93952.75;4991664;28;20030;-79
2022/07/25 04:08:57;;;;;;;7.05;5.80;;;;;;;23.18;46.15;93958.53;4992165;28;20053;-79
2022/07/25 04:11:23;;;;;;;10.10;6.38;;;;;;;23.14;46.18;93917.88;4990082;28;20546;-80
2022/07/25 04:13:49;;;;;;;8.68;6.25;;;;;;;23.37;45.93;93941.84;4989649;28;20032;-80
2022/07/25 04:16:15;;;;;;;7.65;6.28;;;;;;;23.40;45.70;93924.03;4993841;28;20621;-79
2022/07/25 04:18:40;;;;;;;8.05;5.82;;;;;;;23.82;44.79;93959.22;4992864;28;20026;-79
2022/07/25 04:21:06;;;;;;;5.97;5.35;;;;;;;23.67;44.52;93932.50;4991267;28;20029;-79
2022/07/25 04:23:32;;;;;;;7.00;5.65;;;;;;;23.78;44.49;93920.44;4990399;28;20023;-80
2022/07/25 04:25:57;;;;;;;7.03;5.15;;;;;;;23.85;44.79;93942.16;4991153;28;20030;-80
2022/07/25 04:28:24;;;;;;;7.47;5.40;;;;;;;23.99;44.34;93947.50;4990912;28;20402;-80
2022/07/25 04:30:49;;;;;;;7.78;6.28;;;;;;;24.06;43.87;93937.75;4990726;28;20399;-79
2022/07/25 04:33:15;;;;;;;6.68;5.50;;;;;;;23.63;43.96;93921.66;4990430;28;20036;-79
2022/07/25 04:35:41;;;;;;;6.55;5.43;;;;;;;23.86;44.20;93940.94;4990920;28;20226;-79
2022/07/25 04:38:06;;;;;;;8.00;6.03;;;;;;;23.67;44.21;93908.84;4991959;28;20018;-79
2022/07/25 04:40:32;;;;;;;6.88;5.70;;;;;;;23.53;43.96;93917.03;4993266;28;20022;-79
2022/07/25 04:42:57;;;;;;;8.10;5.78;;;;;;;23.40;44.36;93905.81;4989870;28;20021;-79
2022/07/25 04:45:23;;;;;;;7.35;6.07;;;;;;;23.85;43.70;93933.22;4990953;28;20394;-80
2022/07/25 04:47:49;;;;;;;6.43;5.35;;;;;;;23.85;43.53;93949.50;4990003;28;20078;-79
2022/07/25 04:50:15;;;;;;;7.88;6.03;;;;;;;23.31;44.05;93912.81;4991384;28;20087;-79
2022/07/25 04:52:40;;;;;;;6.82;4.90;;;;;;;23.83;44.20;93952.63;4988784;28;20470;-79
2022/07/25 04:55:06;;;;;;;6.93;5.60;;;;;;;23.89;43.75;93945.63;4990818;28;20036;-79
2022/07/25 04:57:31;;;;;;;6.55;5.40;;;;;;;23.89;43.48;93925.81;4990803;28;20030;-79
2022/07/25 04:59:57;;;;;;;6.00;5.18;;;;;;;24.04;43.66;93948.28;4989435;28;20037;-80
2022/07/25 05:02:23;;;;;;;7.50;5.43;;;;;;;24.11;43.26;93943.59;5002503;28;20029;-79
2022/07/25 05:04:49;;;;;;;6.22;5.10;;;;;;;23.98;43.35;93920.72;4990244;28;20129;-80
2022/07/25 05:07:15;;;;;;;6.38;4.80;;;;;;;24.09;43.28;93937.00;4989563;28;20180;-80
2022/07/25 05:09:40;;;;;;;6.07;5.50;;;;;;;24.10;43.97;93949.41;4990765;28;20046;-79
2022/07/25 05:12:06;;;;;;;11.07;5.82;;;;;;;23.81;43.79;93927.78;4992112;28;20034;-79
2022/07/25 05:14:31;;;;;;;6.43;4.78;;;;;;;23.99;43.72;93933.94;4993185;28;20046;-80
2022/07/25 05:16:57;;;;;;;6.78;5.72;;;;;;;23.87;43.64;93930.88;4990309;28;20080;-79
2022/07/25 05:19:22;;;;;;;7.00;5.97;;;;;;;23.93;43.90;93943.66;4990831;28;20549;-80
2022/07/25 05:21:47;;;;;;;7.07;6.15;;;;;;;24.00;43.87;93946.31;4990263;28;20032;-80
2022/07/25 05:24:13;;;;;;;6.65;5.18;;;;;;;24.12;43.85;93957.94;4992146;28;20108;-79
2022/07/25 05:26:38;;;;;;;7.15;5.88;;;;;;;23.88;44.00;93927.75;5005130;28;20054;-79
2022/07/25 05:29:04;;;;;;;7.13;5.25;;;;;;;23.91;44.61;93956.84;4992223;28;20026;-79
2022/07/25 05:31:29;;;;;;;6.18;5.32;;;;;;;23.95;43.89;93945.97;5005302;28;20086;-79
2022/07/25 05:33:54;;;;;;;6.68;5.78;;;;;;;24.01;44.52;93961.47;4988686;28;20046;-80
2022/07/25 05:36:20;;;;;;;8.90;7.10;;;;;;;23.67;45.17;93938.69;4990622;28;20544;-80
2022/07/25 05:38:45;;;;;;;7.03;5.70;;;;;;;23.75;44.27;93926.66;4993090;28;20034;-78
2022/07/25 05:41:11;;;;;;;7.78;6.13;;;;;;;23.87;44.43;93920.78;5000440;28;20033;-79
2022/07/25 05:43:36;;;;;;;8.38;5.72;;;;;;;23.68;44.19;93913.09;4995592;28;20023;-80
2022/07/25 05:46:03;;;;;;;6.43;5.63;;;;;;;23.93;44.60;93957.22;4994624;28;20022;-80
2022/07/25 05:48:29;;;;;;;8.38;5.85;;;;;;;23.97;45.10;93952.56;4993810;28;20286;-79
2022/07/25 05:50:55;;;;;;;7.20;6.50;;;;;;;23.88;45.65;93946.78;4993094;28;20088;-80
2022/07/25 05:53:20;;;;;;;7.63;6.40;;;;;;;23.79;44.82;93924.69;4993744;28;20145;-80
2022/07/25 05:55:46;;;;;;;8.57;6.35;;;;;;;24.08;44.66;93940.88;5008315;28;20385;-80
2022/07/25 05:58:11;;;;;;;7.57;6.68;;;;;;;23.86;45.12;93923.88;4993668;28;20096;-80
2022/07/25 06:00:38;;;;;;;8.50;5.28;;;;;;;24.20;44.25;93937.75;4995319;28;20088;-79
2022/07/25 06:03:03;;;;;;;9.18;5.78;;;;;;;24.01;44.56;93938.94;4994544;28;20022;-79
2022/07/25 06:05:29;;;;;;;10.75;5.88;;;;;;;24.02;44.86;93935.84;4992705;28;20513;-79
2022/07/25 06:07:54;;;;;;;6.72;6.03;;;;;;;24.05;44.85;93945.16;4993437;28;20684;-80
2022/07/25 06:10:20;;;;;;;6.70;5.72;;;;;;;23.82;45.31;93934.75;4992008;28;20046;-79
2022/07/25 06:12:46;;;;;;;9.10;6.20;;;;;;;23.91;45.82;93945.19;4992221;28;20049;-78
2022/07/25 06:15:11;;;;;;;9.77;6.30;;;;;;;23.96;45.28;93940.13;4993303;28;20041;-78
2022/07/25 06:17:36;;;;;;;5.72;5.13;;;;;;;23.87;45.38;93930.88;4995038;28;20932;-79
2022/07/25 06:20:03;;;;;;;6.60;5.78;;;;;;;23.65;45.90;93941.03;4993674;28;20109;-80
2022/07/25 06:22:29;;;;;;;9.52;5.93;;;;;;;23.97;45.19;93938.97;4992042;28;20017;-81
2022/07/25 06:24:54;;;;;;;7.03;5.90;;;;;;;23.87;45.85;93912.63;4992120;28;20034;-79
2022/07/25 06:27:20;;;;;;;6.97;5.80;;;;;;;24.06;45.31;93937.75;4991680;28;20022;-78
2022/07/25 06:29:45;;;;;;;11.07;6.22;;;;;;;23.71;45.83;93934.03;4992545;28;20061;-79
2022/07/25 06:32:11;;;;;;;8.73;5.55;;;;;;;23.95;45.56;93943.28;4992019;28;20085;-79
2022/07/25 06:34:37;;;;;;;9.93;6.47;;;;;;;24.07;44.85;93939.31;4993782;28;20385;-78
2022/07/25 06:37:03;;;;;;;8.65;7.10;;;;;;;23.95;45.66;93938.59;4991873;28;20411;-77
2022/07/25 06:39:28;;;;;;;8.23;6.10;;;;;;;24.01;45.02;93920.72;4993086;28;20338;-79
2022/07/25 06:41:53;;;;;;;8.50;6.07;;;;;;;23.87;45.04;93928.94;4993553;28;20119;-79
2022/07/25 06:44:19;;;;;;;6.28;5.68;;;;;;;24.07;45.59;93931.94;4992806;28;20026;-79
2022/07/25 06:46:44;;;;;;;9.30;6.25;;;;;;;23.90;45.45;93920.00;4991307;28;20026;-79
2022/07/25 06:49:10;;;;;;;8.93;6.43;;;;;;;23.95;44.58;93910.66;4991808;28;20061;-79
2022/07/25 06:51:35;;;;;;;6.63;5.95;;;;;;;24.13;44.80;93900.50;4991397;28;20034;-79
2022/07/25 06:54:00;;;;;;;7.35;6.45;;;;;;;24.44;44.21;93939.53;4991921;28;20022;-79
2022/07/25 06:56:30;;;;;;;7.32;5.78;;;;;;;24.44;44.17;93925.97;4990952;28;20030;-79
2022/07/25 06:58:56;;;;;;;7.90;5.93;;;;;;;24.51;43.83;93927.84;4991200;28;20545;-79
2022/07/25 07:01:21;;;;;;;7.10;6.38;;;;;;;24.63;43.82;93900.97;4990719;28;20050;-78
2022/07/25 07:03:47;;;;;;;6.68;5.50;;;;;;;24.58;42.96;93906.03;5007157;28;20391;-79
2022/07/25 07:06:12;;;;;;;7.13;5.93;;;;;;;24.32;43.84;93905.44;4993198;28;20022;-78
2022/07/25 07:08:38;;;;;;;7.22;6.50;;;;;;;24.39;43.18;93877.44;4990163;28;20048;-79
2022/07/25 07:11:04;;;;;;;6.82;5.70;;;;;;;24.67;42.88;93907.13;4990952;28;20018;-78
2022/07/25 07:13:29;;;;;;;8.25;7.38;;;;;;;24.56;43.33;93895.56;4992228;28;20033;-79
2022/07/25 07:15:55;;;;;;;7.55;6.00;;;;;;;24.75;42.22;93930.41;4991737;28;20040;-79
2022/07/25 07:18:20;;;;;;;8.13;5.88;;;;;;;24.97;42.20;93935.69;4990579;28;20584;-79
2022/07/25 07:20:46;;;;;;;7.50;6.47;;;;;;;24.84;41.86;93919.06;4988852;28;20034;-78
2022/07/25 07:23:12;;;;;;;6.97;6.28;;;;;;;24.53;42.34;93918.13;4989172;28;20034;-79
2022/07/25 07:25:38;;;;;;;6.07;5.40;;;;;;;24.74;41.25;93917.97;4991332;28;20023;-79
2022/07/25 07:28:04;;;;;;;9.20;6.40;;;;;;;24.53;41.40;93929.00;4988622;28;20022;-79
2022/07/25 07:30:30;;;;;;;9.00;6.38;;;;;;;24.74;42.77;93928.06;4990263;28;20653;-76
2022/07/25 07:32:55;;;;;;;8.80;7.03;;;;;;;24.91;41.05;93920.97;4990379;28;20455;-79
2022/07/25 07:35:21;;;;;;;7.60;6.80;;;;;;;24.84;41.51;93928.00;4992013;28;20101;-78
2022/07/25 07:37:46;;;;;;;7.55;5.95;;;;;;;24.63;42.57;93890.09;4991211;28;20037;-78
2022/07/25 07:40:15;;;;;;;6.70;6.00;;;;;;;24.61;41.49;93918.84;4991843;28;20493;-76
2022/07/25 07:42:43;;;;;;;8.98;6.47;;;;;;;24.71;41.86;93885.34;4991882;28;20026;-79
2022/07/25 07:45:20;;;;;;;7.13;6.43;;;;;;;24.58;41.41;93887.00;4989248;28;20116;-78
2022/07/25 07:47:47;;;;;;;8.57;6.20;;;;;;;24.58;42.15;93917.69;4987965;28;20034;-79
2022/07/25 07:50:18;;;;;;;8.00;6.10;;;;;;;24.67;41.57;93928.91;4988071;28;20116;-79
2022/07/25 07:52:45;;;;;;;8.07;6.50;;;;;;;24.76;41.09;93925.75;5002956;28;20386;-80
2022/07/25 07:57:55;;;;;;;7.45;6.05;;;;;;;24.72;40.13;93908.69;4988209;28;20133;-79
2022/07/25 08:00:22;;;;;;;5.80;5.22;;;;;;;24.79;40.97;93923.00;4991692;28;20030;-79
2022/07/25 08:02:50;;;;;;;7.53;6.50;;;;;;;24.75;41.72;93924.97;4989779;28;20105;-79
2022/07/25 08:05:33;;;;;;;8.85;6.00;;;;;;;24.57;40.69;93886.25;4989532;28;20054;-79
2022/07/25 08:08:00;;;;;;;7.65;5.88;;;;;;;24.76;41.22;93920.31;4989099;28;20632;-79
2022/07/25 08:10:31;;;;;;;9.00;7.50;;;;;;;24.84;40.94;93925.28;4990145;28;20421;-79
2022/07/25 08:12:58;;;;;;;7.40;6.05;;;;;;;24.82;41.16;93916.00;4990327;28;20040;-79
2022/07/25 08:15:24;;;;;;;11.38;7.50;;;;;;;24.91;41.20;93888.31;4995160;28;20022;-79
2022/07/25 08:17:50;;;;;;;7.68;5.93;;;;;;;24.67;41.28;93900.94;4992218;28;20030;-79
2022/07/25 08:20:21;;;;;;;7.53;6.03;;;;;;;24.49;41.04;93892.91;4991303;28;20156;-79
2022/07/25 08:22:47;;;;;;;8.10;5.97;;;;;;;24.83;40.75;93899.25;4987796;28;20037;-79
2022/07/25 08:25:15;;;;;;;9.70;6.80;;;;;;;25.19;41.74;93910.59;4987957;28;20413;-79
2022/07/25 08:27:41;;;;;;;8.55;6.45;;;;;;;25.04;40.24;93908.41;4989143;28;20048;-78
2022/07/25 08:30:07;;;;;;;5.70;5.15;;;;;;;25.09;39.20;93907.97;4988527;28;20470;-79
2022/07/25 08:32:33;;;;;;;8.10;4.75;;;;;;;25.18;39.16;93914.50;4985726;28;20060;-79
2022/07/25 08:35:00;;;;;;;7.28;6.05;;;;;;;25.10;39.36;93917.69;4983987;28;20030;-79
2022/07/25 08:37:26;;;;;;;8.75;5.35;;;;;;;24.98;38.66;93904.59;4985580;28;20033;-78
2022/07/25 08:39:51;;;;;;;14.55;6.35;;;;;;;25.02;38.63;93894.44;4987101;28;20512;-79
2022/07/25 08:42:19;;;;;;;6.55;5.85;;;;;;;24.97;39.25;93897.59;4988308;28;20022;-79
2022/07/25 08:44:54;;;;;;;7.80;5.50;;;;;;;25.13;39.23;93895.09;4985916;28;20033;-79
2022/07/25 08:47:20;;;;;;;6.97;5.68;;;;;;;24.95;39.13;93897.22;4984978;28;20443;-79
2022/07/25 08:49:46;;;;;;;9.55;6.72;;;;;;;24.83;39.75;93887.63;4986099;28;20025;-78
2022/07/25 08:52:12;;;;;;;7.90;6.50;;;;;;;24.76;39.02;93876.78;4993277;28;20635;-79
2022/07/25 08:54:37;;;;;;;8.13;5.97;;;;;;;24.90;38.51;93903.09;4984855;28;20022;-79
2022/07/25 08:57:03;;;;;;;8.63;6.53;;;;;;;25.17;38.34;93895.84;4988779;28;20470;-78
2022/07/25 08:59:30;;;;;;;8.68;5.55;;;;;;;25.06;38.46;93906.06;4986923;28;20038;-78
2022/07/25 09:01:57;;;;;;;6.22;5.60;;;;;;;24.89;38.20;93890.66;4990456;28;20432;-79
2022/07/25 09:04:24;;;;;;;7.10;5.88;;;;;;;24.89;38.73;93883.28;4992848;28;20028;-78
2022/07/25 09:06:50;;;;;;;7.43;5.55;;;;;;;25.08;37.41;93903.69;4988265;28;20034;-79
2022/07/25 09:09:16;;;;;;;6.30;5.45;;;;;;;25.09;39.14;93891.66;4992399;28;20053;-79
2022/07/25 09:11:42;;;;;;;6.35;5.70;;;;;;;25.13;37.96;93889.66;4985359;28;20478;-79
2022/07/25 09:14:11;;;;;;;6.80;5.63;;;;;;;25.17;37.88;93896.63;4986531;28;20083;-78
2022/07/25 09:16:40;;;;;;;6.72;5.55;;;;;;;25.25;38.48;93875.56;4985560;28;20022;-79
2022/07/25 09:19:10;;;;;;;6.10;5.10;;;;;;;25.29;37.58;93859.94;4994953;28;20918;-79
2022/07/25 09:21:36;;;;;;;5.72;5.13;;;;;;;25.43;37.45;93900.66;4985826;28;20072;-81
2022/07/25 09:24:09;;;;;;;10.27;5.78;;;;;;;25.20;37.61;93895.03;4982642;28;20342;-78
2022/07/25 09:26:52;;;;;;;5.80;5.25;;;;;;;25.14;38.76;93894.69;4984244;28;20026;-81
2022/07/25 09:29:20;;;;;;;8.55;6.28;;;;;;;25.08;38.05;93882.69;4989807;28;20045;-79
2022/07/25 09:31:46;;;;;;;6.78;6.07;;;;;;;25.20;38.07;93884.16;4983561;28;20033;-77
2022/07/25 09:34:11;;;;;;;8.80;5.82;;;;;;;25.27;39.08;93862.31;4987620;28;20437;-79
2022/07/25 09:36:51;;;;;;;6.05;5.45;;;;;;;25.40;38.33;93871.53;4962768;28;20023;-79
2022/07/25 09:39:16;;;;;;;6.47;5.47;;;;;;;25.27;38.19;93841.28;4986998;28;20121;-81
2022/07/25 09:41:41;;;;;;;7.05;5.97;;;;;;;25.32;38.26;93878.25;4999844;28;20042;-79
2022/07/25 09:44:28;;;;;;;6.13;5.38;;;;;;;25.36;37.35;93886.38;4982965;28;20030;-79
2022/07/25 09:46:53;;;;;;;6.47;5.78;;;;;;;25.61;37.60;93878.69;4970638;28;20516;-80
2022/07/25 09:49:19;;;;;;;9.75;5.78;;;;;;;25.74;36.66;93889.81;4982072;28;20033;-81
2022/07/25 09:51:46;;;;;;;6.35;5.28;;;;;;;25.86;36.76;93881.88;4985797;28;20146;-79
2022/07/25 09:54:12;;;;;;;6.70;5.78;;;;;;;25.94;38.61;93877.13;4985815;28;20594;-80
2022/07/25 09:56:37;;;;;;;7.28;5.68;;;;;;;26.10;37.91;93880.03;4987464;28;20018;-81
2022/07/25 09:59:04;;;;;;;6.75;6.13;;;;;;;26.17;36.49;93876.44;4983098;28;20594;-80
2022/07/25 10:01:35;;;;;;;7.30;5.55;;;;;;;25.90;37.12;93849.16;4983830;28;20037;-80
2022/07/25 10:04:01;;;;;;;6.78;5.82;;;;;;;25.95;37.69;93867.78;4980437;28;20137;-77
2022/07/25 10:07:03;;;;;;;6.68;5.82;;;;;;;26.11;37.38;93870.66;4985032;28;20044;-80
2022/07/25 10:09:29;;;;;;;5.95;5.00;;;;;;;25.61;36.76;93844.06;4984885;28;20058;-80
2022/07/25 10:12:06;;;;;;;6.38;5.63;;;;;;;25.93;36.27;93840.16;4982487;28;20489;-79
2022/07/25 10:14:32;;;;;;;7.15;5.68;;;;;;;26.22;36.10;93865.84;4977410;28;20038;-80
2022/07/25 10:16:59;;;;;;;7.25;5.43;;;;;;;26.15;36.68;93860.50;4980821;28;20067;-80
2022/07/25 10:19:45;;;;;;;6.97;6.07;;;;;;;25.99;36.36;93866.56;4983108;28;20402;-80
2022/07/25 10:22:11;;;;;;;6.15;5.55;;;;;;;25.73;36.16;93861.03;4984365;28;20018;-80
2022/07/25 10:24:38;;;;;;;7.72;5.15;;;;;;;25.52;36.55;93860.09;4989027;28;20022;-80
2022/07/25 10:27:12;;;;;;;7.68;5.53;;;;;;;25.81;36.50;93862.50;4986898;28;20030;-80
2022/07/25 10:29:39;;;;;;;6.97;5.68;;;;;;;25.86;36.54;93856.59;4990222;28;20030;-78
2022/07/25 10:32:11;;;;;;;6.80;5.75;;;;;;;26.01;35.35;93850.56;4988188;28;20096;-80
2022/07/25 10:34:37;;;;;;;5.70;5.13;;;;;;;26.10;35.07;93856.25;4990225;28;20457;-80
2022/07/25 10:37:09;;;;;;;6.72;5.30;;;;;;;26.29;34.98;93856.81;4989828;28;20731;-79
2022/07/25 10:39:39;;;;;;;9.60;5.45;;;;;;;26.38;35.28;93840.69;4990924;28;20021;-79
2022/07/25 10:42:04;;;;;;;7.68;5.00;;;;;;;26.43;35.36;93832.03;4987824;28;20050;-79
2022/07/25 10:44:40;;;;;;;6.43;5.68;;;;;;;26.49;35.17;93825.75;4983124;28;20160;-80
2022/07/25 10:47:09;;;;;;;5.45;4.95;;;;;;;26.55;35.19;93843.16;4989659;28;20159;-79
2022/07/25 10:49:37;;;;;;;6.57;5.60;;;;;;;26.35;35.28;93846.97;4984772;28;20034;-80
2022/07/25 10:52:03;;;;;;;7.88;5.78;;;;;;;26.20;36.02;93851.88;4990786;28;20260;-79
2022/07/25 10:54:34;;;;;;;6.45;5.78;;;;;;;25.98;35.06;93847.88;4983859;28;20038;-80
2022/07/25 10:57:00;;;;;;;8.38;5.68;;;;;;;26.05;35.04;93831.44;4985640;28;20465;-80
2022/07/25 10:59:34;;;;;;;5.82;5.22;;;;;;;26.34;35.23;93838.03;4984526;28;20034;-80
2022/07/25 11:02:01;;;;;;;5.72;5.00;;;;;;;26.22;34.34;93829.63;4988277;28;20053;-80
2022/07/25 11:04:27;;;;;;;8.48;5.13;;;;;;;26.33;34.58;93805.72;4981729;28;20041;-80
2022/07/25 11:06:52;;;;;;;5.50;4.97;;;;;;;26.65;34.47;93825.06;4983493;28;20026;-80
2022/07/25 11:09:23;;;;;;;7.47;5.75;;;;;;;26.91;34.16;93828.94;4981492;28;21589;-79
2022/07/25 11:11:51;;;;;;;8.75;5.20;;;;;;;27.14;33.93;93826.19;4987564;28;20030;-79
2022/07/25 11:14:25;;;;;;;6.18;4.53;;;;;;;27.09;32.57;93825.91;4992249;28;20486;-80
2022/07/25 11:16:53;;;;;;;6.05;5.45;;;;;;;27.28;33.14;93804.06;4989320;28;20053;-80
2022/07/25 11:19:25;;;;;;;5.10;4.60;;;;;;;27.09;32.87;93784.97;4988210;28;20033;-80
2022/07/25 11:21:54;;;;;;;5.18;4.68;;;;;;;27.03;32.83;93801.06;4986738;28;20030;-80
2022/07/25 11:24:20;;;;;;;6.22;4.95;;;;;;;26.96;32.91;93812.06;4993658;28;20022;-79
2022/07/25 11:26:51;;;;;;;6.30;4.75;;;;;;;26.91;32.09;93818.00;4987722;28;21192;-79
2022/07/25 11:29:25;;;;;;;5.20;4.55;;;;;;;26.99;32.28;93814.72;4987675;28;20303;-80
2022/07/25 11:31:59;;;;;;;4.90;4.40;;;;;;;27.08;31.61;93794.34;4987020;28;20038;-79